GCLPGCXO

Guest
Details From GCLP - Gran Canaria
To GCXO - Tenerife Norte - Los Rodeos
Flight Number -
Tags generated
Created
Modified
Stats Distance 63 nm / 117 km
Max Altitude 3,200 ft / 975 m
Waypoints 3
Social Downloads 2
Likes 0
Share VATSIM

Download

Looking for another format? Having issues loading an existing format? Contact us
Advertisement - Login to hide

Notes

Basic altitude profile: - Ascent Rate: 1800ft/min - Ascent Speed: 240kts - Cruise Altitude: 10000ft - Cruise Speed: 320kts - Descent Rate: 1800ft/min - Descent Speed: 170kts Options: - Use NATs: yes - Use PACOTS: yes - Use low airways: yes - Use high airways: yes

Route

GCLP GDV GCXO

ID Type Via Altitude (ft/m) Position (lat/lon) Dist (leg/tot) Name
O GCLP APT - 0 / 0 27.93154 / -15.38559 - / 0 nm Gran Canaria
GDV VOR - 3,200 / 975 28.07708 / -15.42899 9 / 9 nm GRAN CANARIA VOR-DME
O GCXO APT - 0 / 0 28.48266 / -16.34154 54 / 63 nm Tenerife Norte - Los Rodeos

Altitude Profile

Advertisement - Login to hide

GCLP

Details ICAO GCLP (LPA)
Name Gran Canaria - Las Palmas
Region Canary Islands
Timezone Atlantic/Canary (UTC+1.0)
Stats Elevation 78 ft / 24 m (AMSL)
Location 27.931600° -15.385600°
Runways 2
Magnetic Variation 4.588° W

METAR

GCLP 161630Z 03019KT 9999 FEW030 26/17 Q1018 NOSIG

Decode

TAF

TAF GCLP 161400Z 1615/1715 02019KT 9999 SCT030 TX26/1715Z TN20/1705Z= TAF AMD KCBM 161411Z 1614/1715 02012KT 8000 -SHRA BKN010 QNH3013INS TEMPO 1614/1615 VRB10G15KT 6000 -TSRA BKN003CB TEMPO 1615/1624 BKN008 BECMG 1701/1702 35006KT 9999 NSW BKN020 QNH3018INS BECMG 1709/1710 02012KT 8000 -SHRA BKN020 QNH3023INS TX17/1621Z TN13/1614Z

Decode

Departure Runways

ID Width Length Bearing (true/mag) Surface Threshold Overrun Markings Lighting
03L 148 ft / 45 m 10,181 ft / 3,103 m 21.33° / 25.92° ASPHALT 0 ft / 0 m 656 ft / 200 m PREC-APP CENTERLINE EDGE THRESHOLD CALVERT REIL-OMNI
03R 148 ft / 45 m 10,181 ft / 3,103 m 21.33° / 25.92° ASPHALT 0 ft / 0 m 656 ft / 200 m PREC-APP CENTERLINE EDGE THRESHOLD CALVERT REIL-OMNI
21L 148 ft / 45 m 10,181 ft / 3,103 m 201.34° / 205.92° ASPHALT 0 ft / 0 m 666 ft / 203 m PREC-APP CENTERLINE EDGE THRESHOLD MALS REIL-OMNI
21R 148 ft / 45 m 10,181 ft / 3,103 m 201.34° / 205.92° ASPHALT 0 ft / 0 m 755 ft / 230 m PREC-APP CENTERLINE EDGE THRESHOLD MALS REIL-OMNI

GCXO

Details ICAO GCXO (TFN)
Name Tenerife Norte - Los Rodeos
Region Canary Islands
Timezone Atlantic/Canary (UTC+1.0)
Stats Elevation 2,076 ft / 633 m (AMSL)
Location 28.482700° -16.341500°
Runways 1
Magnetic Variation 4.904° W

METAR

GCXO 161630Z 31011KT 280V350 9999 FEW018 20/13 Q1021 NOSIG

Decode

TAF

TAF GCXO 161400Z 1615/1715 31012KT 9999 SCT018 TX23/1615Z TN16/1705Z PROB30 TEMPO 1619/1708 4900 BR BKN007

Decode

Destination Runways

ID Width Length Bearing (true/mag) Surface Threshold Overrun Markings Lighting
12 148 ft / 45 m 11,165 ft / 3,403 m 110.67° / 115.58° ASPHALT 0 ft / 0 m 197 ft / 60 m VISUAL CENTERLINE EDGE THRESHOLD SALS REIL-OMNI
30 148 ft / 45 m 11,165 ft / 3,403 m 290.69° / 295.59° ASPHALT 453 ft / 138 m 197 ft / 60 m VISUAL CENTERLINE EDGE THRESHOLD SALS REIL-OMNI

Approach Navaids

Runway Type Ident Frequency Range Bearing (true/mag) Slope Elevation
12 LOC-ILS INOR 108.70 MHz 18 nm / 33 km 110.68° / 115.58 ° - 2,076 ft / 633 m (AMSL)
12 DME INOR 108.70 MHz 18 nm / 33 km - - 2,070 ft / 631 m (AMSL)
12 GS INOR 108.70 MHz 10 nm / 19 km 110.68° / 115.58 ° 3.00° 2,076 ft / 633 m (AMSL)
30 DME ITF 110.30 MHz 18 nm / 33 km - - 2,031 ft / 619 m (AMSL)
30 LOC-ILS ITF 110.30 MHz 18 nm / 33 km 290.68° / 295.58 ° - 2,076 ft / 633 m (AMSL)
30 GS ITF 110.30 MHz 10 nm / 19 km 290.68° / 295.58 ° 3.00° 2,076 ft / 633 m (AMSL)

Popular Alternatives